createdAt,value
2022-08-17T00:00:16.564Z,24.78
2022-08-17T00:01:12.573Z,24.78
2022-08-17T00:02:25.253Z,24.74
2022-08-17T00:03:13.628Z,24.76
2022-08-17T00:04:11.756Z,24.71
2022-08-17T00:05:11.529Z,24.71
2022-08-17T00:06:11.490Z,24.79
2022-08-17T00:07:11.527Z,24.75
2022-08-17T00:08:11.491Z,24.71
2022-08-17T00:09:11.483Z,24.76
2022-08-17T00:10:12.446Z,24.75
2022-08-17T00:11:11.447Z,24.62
2022-08-17T00:12:42.248Z,24.65
2022-08-17T00:13:12.414Z,24.62
2022-08-17T00:14:11.405Z,24.60
2022-08-17T00:15:11.403Z,24.58
2022-08-17T00:16:11.409Z,24.71
2022-08-17T00:17:11.369Z,24.65
2022-08-17T00:19:05.702Z,24.58
2022-08-17T00:19:12.345Z,24.65
2022-08-17T00:20:11.344Z,24.60
2022-08-17T00:21:11.327Z,24.66
2022-08-17T00:22:35.242Z,24.53
2022-08-17T00:23:12.311Z,24.53
2022-08-17T00:24:11.293Z,24.53
2022-08-17T00:25:11.286Z,24.53
2022-08-17T00:26:14.315Z,24.51
2022-08-17T00:27:11.270Z,24.45
2022-08-17T00:28:11.258Z,24.40
2022-08-17T00:29:11.231Z,24.37
2022-08-17T00:30:12.221Z,24.44
2022-08-17T00:31:11.218Z,24.43
2022-08-17T00:33:15.123Z,24.38
2022-08-17T00:33:16.458Z,24.40
2022-08-17T00:34:12.103Z,24.37
2022-08-17T00:35:11.189Z,24.37
2022-08-17T00:36:11.215Z,24.38
2022-08-17T00:37:11.149Z,24.37
2022-08-17T00:38:11.145Z,24.31
2022-08-17T00:39:11.173Z,24.26
2022-08-17T00:40:11.196Z,24.33
2022-08-17T00:41:11.155Z,24.29
2022-08-17T00:42:11.096Z,24.28
2022-08-17T00:43:11.086Z,24.22
2022-08-17T00:44:11.079Z,24.28
2022-08-17T00:45:11.111Z,24.23
2022-08-17T00:46:11.056Z,24.23
2022-08-17T00:47:11.046Z,24.18
2022-08-17T00:48:26.204Z,24.21
2022-08-17T00:49:12.013Z,24.21
2022-08-17T00:50:11.051Z,24.21
2022-08-17T00:51:10.998Z,24.19
2022-08-17T00:52:11.985Z,24.13
2022-08-17T00:53:10.982Z,24.15
2022-08-17T00:54:10.967Z,24.15
2022-08-17T00:55:10.946Z,24.08
2022-08-17T00:56:10.963Z,24.11
2022-08-17T00:57:10.951Z,24.07
2022-08-17T00:58:10.928Z,24.06
2022-08-17T00:59:10.905Z,24.04
2022-08-17T01:00:10.895Z,24.06
2022-08-17T01:01:10.965Z,24.01
2022-08-17T01:02:10.868Z,24.01
2022-08-17T01:03:10.885Z,24.01
2022-08-17T01:04:10.852Z,24.01
2022-08-17T01:05:10.881Z,24.01
2022-08-17T01:06:10.827Z,23.88
2022-08-17T01:07:10.819Z,23.97
2022-08-17T01:08:10.806Z,23.96
2022-08-17T01:09:10.798Z,23.94
2022-08-17T01:10:58.125Z,23.92
2022-08-17T01:11:11.854Z,23.88
2022-08-17T01:12:10.778Z,23.81
2022-08-17T01:13:10.756Z,23.84
2022-08-17T01:14:10.757Z,23.91
2022-08-17T01:15:10.743Z,23.84
2022-08-17T01:16:10.767Z,23.71
2022-08-17T01:17:10.717Z,23.84
2022-08-17T01:18:10.701Z,23.78
2022-08-17T01:19:10.682Z,23.81
2022-08-17T01:20:10.682Z,23.82
2022-08-17T01:21:10.697Z,23.74
2022-08-17T01:22:10.658Z,23.74
2022-08-17T01:23:10.666Z,23.84
2022-08-17T01:24:11.633Z,23.81
2022-08-17T01:25:10.814Z,23.70
2022-08-17T01:26:10.610Z,23.71
2022-08-17T01:27:10.832Z,23.74
2022-08-17T01:28:10.591Z,23.59
2022-08-17T01:29:11.603Z,23.69
2022-08-17T01:30:58.658Z,23.60
2022-08-17T01:31:11.598Z,23.66
2022-08-17T01:32:10.547Z,23.64
2022-08-17T01:33:10.539Z,23.56
2022-08-17T01:34:10.532Z,23.67
2022-08-17T01:35:10.512Z,23.61
2022-08-17T01:36:10.538Z,23.55
2022-08-17T01:37:10.500Z,23.54
2022-08-17T01:38:10.502Z,23.54
2022-08-17T01:39:10.479Z,23.56
2022-08-17T01:40:10.513Z,23.60
2022-08-17T01:41:10.492Z,23.54
2022-08-17T01:42:10.441Z,23.51
2022-08-17T01:43:10.432Z,23.52
2022-08-17T01:44:10.424Z,23.49
2022-08-17T01:45:10.441Z,23.42
2022-08-17T01:46:10.462Z,23.48
2022-08-17T01:47:10.390Z,23.48
2022-08-17T01:48:10.379Z,23.41
2022-08-17T01:49:10.371Z,23.42
2022-08-17T01:50:10.360Z,23.44
2022-08-17T01:51:10.346Z,23.42
2022-08-17T01:52:10.372Z,23.49
2022-08-17T01:53:10.327Z,23.42
2022-08-17T01:54:10.315Z,23.33
2022-08-17T01:55:10.300Z,23.36
2022-08-17T01:56:10.302Z,23.42
2022-08-17T01:57:10.323Z,23.37
2022-08-17T01:58:10.274Z,23.42
2022-08-17T01:59:10.256Z,23.39
2022-08-17T02:00:10.249Z,23.29
2022-08-17T02:01:10.348Z,23.31
2022-08-17T02:02:10.403Z,23.25
2022-08-17T02:03:10.221Z,23.36
2022-08-17T02:04:10.207Z,23.34
2022-08-17T02:05:10.213Z,23.15
2022-08-17T02:06:28.047Z,23.36
2022-08-17T02:07:11.172Z,23.33
2022-08-17T02:08:20.149Z,23.25
2022-08-17T02:09:16.415Z,23.25
2022-08-17T02:10:19.784Z,23.31
2022-08-17T02:11:11.568Z,23.23
2022-08-17T02:12:38.080Z,23.22
2022-08-17T02:13:11.124Z,23.25
2022-08-17T02:14:10.095Z,23.23
2022-08-17T02:15:10.098Z,23.14
2022-08-17T02:16:10.123Z,23.25
2022-08-17T02:17:10.061Z,23.13
2022-08-17T02:18:10.054Z,23.22
2022-08-17T02:19:10.043Z,23.13
2022-08-17T02:20:10.026Z,23.15
2022-08-17T02:21:10.040Z,23.13
2022-08-17T02:22:10.055Z,23.08
2022-08-17T02:23:10.000Z,23.07
2022-08-17T02:24:10.000Z,23.11
2022-08-17T02:25:09.991Z,23.07
2022-08-17T02:26:09.967Z,23.06
2022-08-17T02:27:11.148Z,23.11
2022-08-17T02:28:09.949Z,23.04
2022-08-17T02:29:09.942Z,23.06
2022-08-17T02:31:01.487Z,23.06
2022-08-17T02:31:10.907Z,23.01
2022-08-17T02:32:09.899Z,22.98
2022-08-17T02:33:10.910Z,22.99
2022-08-17T02:34:09.909Z,22.93
2022-08-17T02:35:09.868Z,23.03
2022-08-17T02:36:09.854Z,22.93
2022-08-17T02:37:09.848Z,22.96
2022-08-17T02:38:09.840Z,22.81
2022-08-17T02:39:09.857Z,22.99
2022-08-17T02:40:09.885Z,23.01
2022-08-17T02:41:09.824Z,22.92
2022-08-17T02:42:09.801Z,22.88
2022-08-17T02:43:09.801Z,22.86
2022-08-17T02:44:09.816Z,22.86
2022-08-17T02:45:09.788Z,22.86
2022-08-17T02:46:09.746Z,22.91
2022-08-17T02:47:09.739Z,22.83
2022-08-17T02:48:09.724Z,22.86
2022-08-17T02:49:09.715Z,22.85
2022-08-17T02:50:09.764Z,22.86
2022-08-17T02:51:09.702Z,22.80
2022-08-17T02:52:09.679Z,22.86
2022-08-17T02:53:09.673Z,22.81
2022-08-17T02:54:40.184Z,22.68
2022-08-17T02:55:10.814Z,22.74
2022-08-17T02:56:09.641Z,22.71
2022-08-17T02:57:09.635Z,22.70
2022-08-17T02:58:09.613Z,22.73
2022-08-17T02:59:09.609Z,22.70
2022-08-17T03:00:09.603Z,22.76
2022-08-17T03:01:09.786Z,22.67
2022-08-17T03:02:09.587Z,22.62
2022-08-17T03:03:09.563Z,22.68
2022-08-17T03:04:09.566Z,22.61
2022-08-17T03:05:09.540Z,22.59
2022-08-17T03:06:09.605Z,22.51
2022-08-17T03:07:09.537Z,22.66
2022-08-17T03:08:13.073Z,22.56
2022-08-17T03:09:09.511Z,22.59
2022-08-17T03:10:09.666Z,22.53
2022-08-17T03:11:09.473Z,22.55
2022-08-17T03:12:09.494Z,22.58
2022-08-17T03:13:09.460Z,22.58
2022-08-17T03:14:09.454Z,22.58
2022-08-17T03:15:09.445Z,22.55
2022-08-17T03:16:09.478Z,22.58
2022-08-17T03:17:09.407Z,22.56
2022-08-17T03:18:09.402Z,22.48
2022-08-17T03:19:10.387Z,22.52
2022-08-17T03:20:09.407Z,22.49
2022-08-17T03:21:09.420Z,22.48
2022-08-17T03:22:36.727Z,22.38
2022-08-17T03:23:10.380Z,22.53
2022-08-17T03:24:09.359Z,22.43
2022-08-17T03:25:10.696Z,22.40
2022-08-17T03:26:12.262Z,22.44
2022-08-17T03:27:10.302Z,22.40
2022-08-17T03:28:09.294Z,22.38
2022-08-17T03:29:09.283Z,22.40
2022-08-17T03:30:09.269Z,22.33
2022-08-17T03:31:09.289Z,22.40
2022-08-17T03:32:09.242Z,22.33
2022-08-17T03:33:09.242Z,22.38
2022-08-17T03:34:09.218Z,22.41
2022-08-17T03:35:09.218Z,22.34
2022-08-17T03:36:09.238Z,22.30
2022-08-17T03:37:09.189Z,22.25
2022-08-17T03:38:09.180Z,22.30
2022-08-17T03:39:09.208Z,22.33
2022-08-17T03:40:09.213Z,22.25
2022-08-17T03:41:09.178Z,22.28
2022-08-17T03:42:09.134Z,22.33
2022-08-17T03:43:10.134Z,22.33
2022-08-17T03:44:09.129Z,22.27
2022-08-17T03:45:09.094Z,22.25
2022-08-17T03:46:24.002Z,22.22
2022-08-17T03:47:10.081Z,22.23
2022-08-17T03:48:09.070Z,22.18
2022-08-17T03:49:09.067Z,22.23
2022-08-17T03:50:10.548Z,22.19
2022-08-17T03:51:14.156Z,22.16
2022-08-17T03:52:10.034Z,22.16
2022-08-17T03:53:09.018Z,22.21
2022-08-17T03:54:09.007Z,22.13
2022-08-17T03:55:08.989Z,22.13
2022-08-17T03:56:08.976Z,22.06
2022-08-17T03:57:09.008Z,22.07
2022-08-17T03:58:08.961Z,22.16
2022-08-17T03:59:08.954Z,22.07
2022-08-17T04:00:09.941Z,22.04
2022-08-17T04:01:08.975Z,21.98
2022-08-17T04:02:08.972Z,22.01
2022-08-17T04:03:09.053Z,22.11
2022-08-17T04:04:08.893Z,22.11
2022-08-17T04:05:08.880Z,22.11
2022-08-17T04:06:08.869Z,22.09
2022-08-17T04:07:08.907Z,22.09
2022-08-17T04:08:08.853Z,22.12
2022-08-17T04:09:08.837Z,22.01
2022-08-17T04:10:08.824Z,22.09
2022-08-17T04:11:08.817Z,22.07
2022-08-17T04:12:08.803Z,22.03
2022-08-17T04:13:08.825Z,21.96
2022-08-17T04:14:08.780Z,21.93
2022-08-17T04:15:08.765Z,22.03
2022-08-17T04:16:08.779Z,21.94
2022-08-17T04:17:08.781Z,21.96
2022-08-17T04:18:11.000Z,21.94
2022-08-17T04:19:08.728Z,21.94
2022-08-17T04:20:08.725Z,22.01
2022-08-17T04:21:08.707Z,22.00
2022-08-17T04:22:08.739Z,21.96
2022-08-17T04:23:08.682Z,21.96
2022-08-17T04:24:08.674Z,21.98
2022-08-17T04:25:08.673Z,21.94
2022-08-17T04:26:08.645Z,21.90
2022-08-17T04:27:08.638Z,21.90
2022-08-17T04:28:16.173Z,21.82
2022-08-17T04:29:08.614Z,21.84
2022-08-17T04:30:08.610Z,21.88
2022-08-17T04:31:08.597Z,21.93
2022-08-17T04:32:08.597Z,21.94
2022-08-17T04:33:08.630Z,21.85
2022-08-17T04:34:08.567Z,21.85
2022-08-17T04:35:08.548Z,21.88
2022-08-17T04:36:08.547Z,21.91
2022-08-17T04:37:08.529Z,21.84
2022-08-17T04:38:08.614Z,21.80
2022-08-17T04:39:08.506Z,21.91
2022-08-17T04:40:08.591Z,21.93
2022-08-17T04:41:08.498Z,21.90
2022-08-17T04:42:08.479Z,21.88
2022-08-17T04:43:08.494Z,21.88
2022-08-17T04:44:08.451Z,21.82
2022-08-17T04:45:08.450Z,21.80
2022-08-17T04:46:08.426Z,21.78
2022-08-17T04:47:08.420Z,21.80
2022-08-17T04:48:08.432Z,21.81
2022-08-17T04:49:08.394Z,21.78
2022-08-17T04:50:08.387Z,21.84
2022-08-17T04:51:08.372Z,21.82
2022-08-17T04:52:08.356Z,21.81
2022-08-17T04:53:09.385Z,21.71
2022-08-17T04:54:08.335Z,21.82
2022-08-17T04:55:08.330Z,21.80
2022-08-17T04:56:11.625Z,21.85
2022-08-17T04:57:09.322Z,21.81
2022-08-17T04:58:08.333Z,21.81
2022-08-17T04:59:08.291Z,21.75
2022-08-17T05:00:08.268Z,21.75
2022-08-17T05:01:08.339Z,21.75
2022-08-17T05:02:08.273Z,21.73
2022-08-17T05:03:08.274Z,21.78
2022-08-17T05:04:32.133Z,21.77
2022-08-17T05:05:09.465Z,21.81
2022-08-17T05:06:08.285Z,21.74
2022-08-17T05:07:08.204Z,21.78
2022-08-17T05:08:08.229Z,21.82
2022-08-17T05:09:08.175Z,21.80
2022-08-17T05:10:08.186Z,21.82
2022-08-17T05:11:08.155Z,21.78
2022-08-17T05:12:08.182Z,21.78
2022-08-17T05:13:08.175Z,21.77
2022-08-17T05:14:08.119Z,21.78
2022-08-17T05:15:08.160Z,21.82
2022-08-17T05:16:08.099Z,21.84
2022-08-17T05:17:10.825Z,21.88
2022-08-17T05:18:08.069Z,21.82
2022-08-17T05:19:08.066Z,21.82
2022-08-17T05:20:08.066Z,21.78
2022-08-17T05:21:08.047Z,21.82
2022-08-17T05:22:08.027Z,21.75
2022-08-17T05:23:08.058Z,21.93
2022-08-17T05:24:38.189Z,21.82
2022-08-17T05:25:09.006Z,21.88
2022-08-17T05:26:07.993Z,21.90
2022-08-17T05:27:08.179Z,21.88
2022-08-17T05:28:07.965Z,21.84
2022-08-17T05:29:07.960Z,21.88
2022-08-17T05:30:07.972Z,21.88
2022-08-17T05:31:07.933Z,21.93
2022-08-17T05:32:37.229Z,21.93
2022-08-17T05:33:08.916Z,21.96
2022-08-17T05:34:07.901Z,21.94
2022-08-17T05:35:07.919Z,21.97
2022-08-17T05:36:07.879Z,21.93
2022-08-17T05:37:07.867Z,21.98
2022-08-17T05:38:07.862Z,21.96
2022-08-17T05:39:07.844Z,21.97
2022-08-17T05:40:07.989Z,22.09
2022-08-17T05:41:07.825Z,22.04
2022-08-17T05:42:07.808Z,21.96
2022-08-17T05:43:07.819Z,22.00
2022-08-17T05:44:07.847Z,21.97
2022-08-17T05:45:07.795Z,22.09
2022-08-17T05:46:07.769Z,22.12
2022-08-17T05:47:09.932Z,22.07
2022-08-17T05:48:07.745Z,22.12
2022-08-17T05:49:07.749Z,22.11
2022-08-17T05:50:09.474Z,22.11
2022-08-17T05:51:07.729Z,22.06
2022-08-17T05:52:07.703Z,22.01
2022-08-17T05:53:07.694Z,22.21
2022-08-17T05:54:07.683Z,22.15
2022-08-17T05:55:07.702Z,22.15
2022-08-17T05:56:10.882Z,22.18
2022-08-17T05:57:08.646Z,22.23
2022-08-17T05:58:07.664Z,22.12
2022-08-17T05:59:07.629Z,22.23
2022-08-17T06:00:15.692Z,22.25
2022-08-17T06:01:07.661Z,22.23
2022-08-17T06:02:07.604Z,22.27
2022-08-17T06:03:07.598Z,22.30
2022-08-17T06:04:07.572Z,22.27
2022-08-17T06:05:07.588Z,22.31
2022-08-17T06:06:07.544Z,22.34
2022-08-17T06:07:07.536Z,22.37
2022-08-17T06:08:07.533Z,22.36
2022-08-17T06:09:07.521Z,22.38
2022-08-17T06:10:07.547Z,22.37
2022-08-17T06:11:07.500Z,22.37
2022-08-17T06:12:07.479Z,22.36
2022-08-17T06:13:08.468Z,22.51
2022-08-17T06:14:07.755Z,22.49
2022-08-17T06:15:07.494Z,22.49
2022-08-17T06:16:33.152Z,22.43
2022-08-17T06:17:08.432Z,22.53
2022-08-17T06:18:07.424Z,22.53
2022-08-17T06:19:07.412Z,22.58
2022-08-17T06:20:07.439Z,22.62
2022-08-17T06:21:07.399Z,22.61
2022-08-17T06:22:07.386Z,22.66
2022-08-17T06:23:07.412Z,22.66
2022-08-17T06:24:07.411Z,22.67
2022-08-17T06:25:10.175Z,22.74
2022-08-17T06:26:07.337Z,22.70
2022-08-17T06:27:07.320Z,22.67
2022-08-17T06:28:07.307Z,22.77
2022-08-17T06:29:08.217Z,22.80
2022-08-17T06:30:08.289Z,22.86
2022-08-17T06:31:07.288Z,22.83
2022-08-17T06:32:07.271Z,22.92
2022-08-17T06:33:07.274Z,22.93
2022-08-17T06:34:07.307Z,22.81
2022-08-17T06:35:07.239Z,22.88
2022-08-17T06:36:09.550Z,22.89
2022-08-17T06:37:07.264Z,23.03
2022-08-17T06:38:07.230Z,22.95
2022-08-17T06:39:07.196Z,22.99
2022-08-17T06:40:07.267Z,23.01
2022-08-17T06:41:07.177Z,23.07
2022-08-17T06:42:09.206Z,23.08
2022-08-17T06:43:08.660Z,23.11
2022-08-17T06:44:07.139Z,23.14
2022-08-17T06:45:07.138Z,23.13
2022-08-17T06:46:07.167Z,23.21
2022-08-17T06:47:07.112Z,23.23
2022-08-17T06:48:07.110Z,23.23
2022-08-17T06:49:07.084Z,23.29
2022-08-17T06:50:07.083Z,23.28
2022-08-17T06:51:07.062Z,23.33
2022-08-17T06:52:07.094Z,23.33
2022-08-17T06:53:07.045Z,23.39
2022-08-17T06:54:07.032Z,23.39
2022-08-17T06:55:07.017Z,23.44
2022-08-17T06:56:07.029Z,23.44
2022-08-17T06:57:08.691Z,23.44
2022-08-17T06:58:16.404Z,23.49
2022-08-17T06:59:07.975Z,23.51
2022-08-17T07:00:06.986Z,23.54
2022-08-17T07:01:07.075Z,23.59
2022-08-17T07:02:06.949Z,23.60
2022-08-17T07:03:07.318Z,23.55
2022-08-17T07:04:12.134Z,23.66
2022-08-17T07:05:07.951Z,23.70
2022-08-17T07:06:06.902Z,23.71
2022-08-17T07:07:06.931Z,23.82
2022-08-17T07:08:06.908Z,23.78
2022-08-17T07:09:06.883Z,23.85
2022-08-17T07:10:06.878Z,23.94
2022-08-17T07:11:06.854Z,23.88
2022-08-17T07:12:06.843Z,23.91
2022-08-17T07:13:06.833Z,23.97
2022-08-17T07:14:06.826Z,23.96
2022-08-17T07:15:06.833Z,24.00
2022-08-17T07:16:06.787Z,24.10
2022-08-17T07:17:06.803Z,24.19
2022-08-17T07:18:06.765Z,24.23
2022-08-17T07:19:06.760Z,24.18
2022-08-17T07:20:06.992Z,24.28
2022-08-17T07:21:06.727Z,24.34
2022-08-17T07:22:06.715Z,24.38
2022-08-17T07:23:06.705Z,24.38
2022-08-17T07:24:06.697Z,24.36
2022-08-17T07:25:06.686Z,24.51
2022-08-17T07:26:06.708Z,24.53
2022-08-17T07:27:06.662Z,24.60
2022-08-17T07:28:07.322Z,24.56
2022-08-17T07:29:08.166Z,24.56
2022-08-17T07:30:10.340Z,24.70
2022-08-17T07:31:06.637Z,24.74
2022-08-17T07:32:06.613Z,24.75
2022-08-17T07:33:06.616Z,24.76
2022-08-17T07:34:06.678Z,24.82
2022-08-17T07:35:06.582Z,24.82
2022-08-17T07:36:06.563Z,24.93
2022-08-17T07:37:06.561Z,24.91
2022-08-17T07:38:06.545Z,25.04
2022-08-17T07:39:07.599Z,25.08
2022-08-17T07:40:16.290Z,25.12
2022-08-17T07:41:08.135Z,25.19
2022-08-17T07:42:06.498Z,25.18
2022-08-17T07:43:06.493Z,25.26
2022-08-17T07:44:06.519Z,25.31
2022-08-17T07:45:06.464Z,25.30
2022-08-17T07:46:06.459Z,25.37
2022-08-17T07:47:06.447Z,25.40
2022-08-17T07:48:06.475Z,25.52
2022-08-17T07:49:06.428Z,25.45
2022-08-17T07:50:06.420Z,25.58
2022-08-17T07:51:06.408Z,25.53
2022-08-17T07:52:48.247Z,25.66
2022-08-17T07:53:07.433Z,25.66
2022-08-17T07:54:14.402Z,25.70
2022-08-17T07:55:07.373Z,25.82
2022-08-17T07:56:06.357Z,25.88
2022-08-17T07:57:06.342Z,25.89
2022-08-17T07:58:06.333Z,25.93
2022-08-17T07:59:06.518Z,26.03
2022-08-17T08:00:06.311Z,26.04
2022-08-17T08:01:07.298Z,26.10
2022-08-17T08:02:06.370Z,26.12
2022-08-17T08:03:06.310Z,26.16
2022-08-17T08:04:06.263Z,26.31
2022-08-17T08:05:08.590Z,26.33
2022-08-17T08:06:06.238Z,26.43
2022-08-17T08:07:06.234Z,26.42
2022-08-17T08:08:06.255Z,26.56
2022-08-17T08:09:06.208Z,26.57
2022-08-17T08:10:06.200Z,26.51
2022-08-17T08:11:06.187Z,26.65
2022-08-17T08:12:06.184Z,26.64
2022-08-17T08:13:07.199Z,26.68
2022-08-17T08:14:06.159Z,26.85
2022-08-17T08:15:06.144Z,26.79
2022-08-17T08:16:06.158Z,26.85
2022-08-17T08:17:06.170Z,26.98
2022-08-17T08:18:06.117Z,26.90
2022-08-17T08:19:06.102Z,27.00
2022-08-17T08:20:51.213Z,27.08
2022-08-17T08:21:07.102Z,27.08
2022-08-17T08:22:06.074Z,27.19
2022-08-17T08:23:06.121Z,27.25
2022-08-17T08:24:06.054Z,27.32
2022-08-17T08:25:06.045Z,27.35
2022-08-17T08:26:06.028Z,27.40
2022-08-17T08:27:06.029Z,27.35
2022-08-17T08:28:06.050Z,27.42
2022-08-17T08:29:05.995Z,27.54
2022-08-17T08:30:05.989Z,27.57
2022-08-17T08:31:05.980Z,27.54
2022-08-17T08:32:05.973Z,27.70
2022-08-17T08:33:06.007Z,27.78
2022-08-17T08:34:05.948Z,27.73
2022-08-17T08:35:05.940Z,27.79
2022-08-17T08:36:05.927Z,27.90
2022-08-17T08:37:16.584Z,27.93
2022-08-17T08:38:06.929Z,27.93
2022-08-17T08:39:05.902Z,27.97
2022-08-17T08:40:05.987Z,28.09
2022-08-17T08:41:05.869Z,28.10
2022-08-17T08:42:05.881Z,28.16
2022-08-17T08:43:05.912Z,28.10
2022-08-17T08:44:05.840Z,28.13
2022-08-17T08:45:05.852Z,28.17
2022-08-17T08:46:05.827Z,28.35
2022-08-17T08:47:05.812Z,28.35
2022-08-17T08:48:06.006Z,28.46
2022-08-17T08:49:12.086Z,28.47
2022-08-17T08:50:06.798Z,28.54
2022-08-17T08:51:05.786Z,28.50
2022-08-17T08:52:05.761Z,28.59
2022-08-17T08:53:05.952Z,28.69
2022-08-17T08:54:05.731Z,28.72
2022-08-17T08:55:05.730Z,28.72
2022-08-17T08:56:05.715Z,28.81
2022-08-17T08:57:34.775Z,28.81
2022-08-17T08:58:06.721Z,28.86
2022-08-17T08:59:05.713Z,28.96
2022-08-17T09:00:05.667Z,29.06
2022-08-17T09:01:05.727Z,29.03
2022-08-17T09:02:05.690Z,29.17
2022-08-17T09:03:05.639Z,29.27
2022-08-17T09:04:23.448Z,29.29
2022-08-17T09:05:15.255Z,29.37
2022-08-17T09:06:06.619Z,29.49
2022-08-17T09:07:06.630Z,29.47
2022-08-17T09:08:05.584Z,29.55
2022-08-17T09:09:05.575Z,29.54
2022-08-17T09:10:05.567Z,29.61
2022-08-17T09:11:05.593Z,29.68
2022-08-17T09:12:05.545Z,29.70
2022-08-17T09:13:09.894Z,29.84
2022-08-17T09:14:05.523Z,29.86
2022-08-17T09:15:10.903Z,29.89
2022-08-17T09:16:06.505Z,29.95
2022-08-17T09:17:05.486Z,30.11
2022-08-17T09:19:01.893Z,30.15
2022-08-17T09:19:06.743Z,30.18
2022-08-17T09:20:05.460Z,30.20
2022-08-17T09:21:05.440Z,30.24
2022-08-17T09:22:05.438Z,30.28
2022-08-17T09:23:05.428Z,30.29
2022-08-17T09:24:05.441Z,30.36
2022-08-17T09:25:05.399Z,30.37
2022-08-17T09:26:05.387Z,30.43
2022-08-17T09:27:05.375Z,30.52
2022-08-17T09:28:05.382Z,30.53
2022-08-17T09:29:05.429Z,30.60
2022-08-17T09:30:05.350Z,30.59
2022-08-17T09:31:05.336Z,30.73
2022-08-17T09:32:05.323Z,30.75
2022-08-17T09:33:05.325Z,30.73
2022-08-17T09:34:05.305Z,30.82
2022-08-17T09:35:05.336Z,30.86
2022-08-17T09:36:05.289Z,30.78
2022-08-17T09:37:05.270Z,30.88
2022-08-17T09:38:05.258Z,30.95
2022-08-17T09:39:05.249Z,30.90
2022-08-17T09:40:05.296Z,30.92
2022-08-17T09:41:05.226Z,30.95
2022-08-17T09:42:05.214Z,30.97
2022-08-17T09:43:05.203Z,31.08
2022-08-17T09:44:05.196Z,31.11
2022-08-17T09:45:05.208Z,31.19
2022-08-17T09:46:05.172Z,31.23
2022-08-17T09:47:05.170Z,31.15
2022-08-17T09:48:05.150Z,31.32
2022-08-17T09:49:05.143Z,31.44
2022-08-17T09:50:05.163Z,31.33
2022-08-17T09:51:06.578Z,31.45
2022-08-17T09:52:05.104Z,31.44
2022-08-17T09:53:05.098Z,31.54
2022-08-17T09:54:37.039Z,31.60
2022-08-17T09:55:06.105Z,31.63
2022-08-17T09:56:05.062Z,31.61
2022-08-17T09:57:28.048Z,31.59
2022-08-17T09:58:06.044Z,31.67
2022-08-17T09:59:05.055Z,31.67
2022-08-17T10:00:05.046Z,31.76
2022-08-17T10:01:05.104Z,31.78
2022-08-17T10:02:04.998Z,31.95
2022-08-17T10:03:04.996Z,31.99
2022-08-17T10:04:05.014Z,32.09
2022-08-17T10:05:04.966Z,32.19
2022-08-17T10:06:06.636Z,32.24
2022-08-17T10:07:04.948Z,32.31
2022-08-17T10:08:04.936Z,32.33
2022-08-17T10:09:04.964Z,32.48
2022-08-17T10:10:04.918Z,32.54
2022-08-17T10:11:04.906Z,32.64
2022-08-17T10:12:04.930Z,32.72
2022-08-17T10:13:04.877Z,32.80
2022-08-17T10:14:12.530Z,32.94
2022-08-17T10:15:08.026Z,33.06
2022-08-17T10:16:04.890Z,33.12
2022-08-17T10:17:04.834Z,33.29
2022-08-17T10:18:04.830Z,33.42
2022-08-17T10:19:04.838Z,33.51
2022-08-17T10:20:04.804Z,33.70
2022-08-17T10:21:04.831Z,33.76
2022-08-17T10:22:32.745Z,34.00
2022-08-17T10:23:05.778Z,34.10
2022-08-17T10:24:04.791Z,34.15
2022-08-17T10:25:22.792Z,34.37
2022-08-17T10:26:05.745Z,34.44
2022-08-17T10:27:04.731Z,34.62
2022-08-17T10:28:04.732Z,34.73
2022-08-17T10:29:04.745Z,34.87
2022-08-17T10:30:04.711Z,34.86
2022-08-17T10:31:33.316Z,34.92
2022-08-17T10:32:05.684Z,34.99
2022-08-17T10:33:04.699Z,35.10
2022-08-17T10:34:04.659Z,35.16
2022-08-17T10:35:04.648Z,35.19
2022-08-17T10:36:10.176Z,35.32
2022-08-17T10:37:05.629Z,35.38
2022-08-17T10:38:04.659Z,35.39
2022-08-17T10:39:04.611Z,35.47
2022-08-17T10:40:04.708Z,35.56
2022-08-17T10:41:04.597Z,35.65
2022-08-17T10:42:04.601Z,35.63
2022-08-17T10:43:04.564Z,35.69
2022-08-17T10:44:37.298Z,35.68
2022-08-17T10:45:05.584Z,35.69
2022-08-17T10:46:14.606Z,35.81
2022-08-17T10:47:05.528Z,35.90
2022-08-17T10:48:06.737Z,35.94
2022-08-17T10:49:04.544Z,35.97
2022-08-17T10:50:04.501Z,35.94
2022-08-17T10:51:04.486Z,35.97
2022-08-17T10:52:04.485Z,36.03
2022-08-17T10:53:04.496Z,36.07
2022-08-17T10:54:04.495Z,36.13
2022-08-17T10:55:04.445Z,36.11
2022-08-17T10:56:04.467Z,36.15
2022-08-17T10:57:04.426Z,36.17
2022-08-17T10:58:04.416Z,36.17
2022-08-17T10:59:04.438Z,36.30
2022-08-17T11:00:04.395Z,36.29
2022-08-17T11:01:04.485Z,36.40
2022-08-17T11:02:04.373Z,36.40
2022-08-17T11:03:04.369Z,36.44
2022-08-17T11:04:04.378Z,36.45
2022-08-17T11:05:04.341Z,36.47
2022-08-17T11:06:04.326Z,36.51
2022-08-17T11:07:04.326Z,36.44
2022-08-17T11:08:04.341Z,36.45
2022-08-17T11:09:04.302Z,36.44
2022-08-17T11:10:04.304Z,36.49
2022-08-17T11:11:04.285Z,36.42
2022-08-17T11:12:04.268Z,36.52
2022-08-17T11:13:06.193Z,36.49
2022-08-17T11:14:04.254Z,36.51
2022-08-17T11:15:04.257Z,36.45
2022-08-17T11:16:08.237Z,36.59
2022-08-17T11:17:04.225Z,36.48
2022-08-17T11:18:04.213Z,36.52
2022-08-17T11:19:04.249Z,36.59
2022-08-17T11:20:04.189Z,36.63
2022-08-17T11:21:04.184Z,36.64
2022-08-17T11:22:04.164Z,36.67
2022-08-17T11:23:04.162Z,36.85
2022-08-17T11:24:04.160Z,36.78
2022-08-17T11:25:04.164Z,36.76
2022-08-17T11:26:04.156Z,36.85
2022-08-17T11:27:04.124Z,36.74
2022-08-17T11:28:04.118Z,36.79
2022-08-17T11:29:04.136Z,36.81
2022-08-17T11:30:04.088Z,36.79
2022-08-17T11:31:04.087Z,36.70
2022-08-17T11:32:04.073Z,36.86
2022-08-17T11:33:04.056Z,36.89
2022-08-17T11:34:04.072Z,36.88
2022-08-17T11:35:04.037Z,36.94
2022-08-17T11:36:04.025Z,36.96
2022-08-17T11:37:04.019Z,37.05
2022-08-17T11:38:04.004Z,36.96
2022-08-17T11:39:04.025Z,36.97
2022-08-17T11:40:04.029Z,37.03
2022-08-17T11:41:03.977Z,37.08
2022-08-17T11:42:03.964Z,37.08
2022-08-17T11:43:03.963Z,37.13
2022-08-17T11:44:03.974Z,37.13
2022-08-17T11:45:03.933Z,37.08
2022-08-17T11:46:03.932Z,37.15
2022-08-17T11:47:03.919Z,37.16
2022-08-17T11:48:26.518Z,37.17
2022-08-17T11:49:04.932Z,37.19
2022-08-17T11:50:03.885Z,37.19
2022-08-17T11:51:03.876Z,37.22
2022-08-17T11:52:03.867Z,37.12
2022-08-17T11:53:03.853Z,37.13
2022-08-17T11:54:34.142Z,37.17
2022-08-17T11:55:31.751Z,37.12
2022-08-17T11:56:04.820Z,37.12
2022-08-17T11:57:03.815Z,37.20
2022-08-17T11:58:03.805Z,37.22
2022-08-17T11:59:03.797Z,37.26
2022-08-17T12:00:03.806Z,37.34
2022-08-17T12:01:03.771Z,37.23
2022-08-17T12:02:03.774Z,37.30
2022-08-17T12:03:03.855Z,37.37
2022-08-17T12:04:03.800Z,37.34
2022-08-17T12:05:03.771Z,37.37
2022-08-17T12:06:03.721Z,37.39
2022-08-17T12:07:03.718Z,37.47
2022-08-17T12:08:03.710Z,37.47
2022-08-17T12:09:03.691Z,37.37
2022-08-17T12:10:03.689Z,37.34
2022-08-17T12:11:03.824Z,37.58
2022-08-17T12:12:13.045Z,37.51
2022-08-17T12:13:04.656Z,37.65
2022-08-17T12:14:03.641Z,37.57
2022-08-17T12:15:10.697Z,37.69
2022-08-17T12:16:04.660Z,37.74
2022-08-17T12:17:03.615Z,37.76
2022-08-17T12:18:03.594Z,37.73
2022-08-17T12:19:03.590Z,37.80
2022-08-17T12:20:03.582Z,37.87
2022-08-17T12:21:03.724Z,38.01
2022-08-17T12:22:03.556Z,37.99
2022-08-17T12:23:03.553Z,37.99
2022-08-17T12:24:03.536Z,38.10
2022-08-17T12:25:03.560Z,38.17
2022-08-17T12:26:03.517Z,38.16
2022-08-17T12:27:03.536Z,38.16
2022-08-17T12:28:06.706Z,38.17
2022-08-17T12:29:03.488Z,38.23
2022-08-17T12:30:03.483Z,38.25
2022-08-17T12:31:03.503Z,38.26
2022-08-17T12:32:03.568Z,38.16
2022-08-17T12:33:03.453Z,38.33
2022-08-17T12:34:03.434Z,38.32
2022-08-17T12:35:03.429Z,38.35
2022-08-17T12:36:03.471Z,38.33
2022-08-17T12:37:03.402Z,38.26
2022-08-17T12:38:03.406Z,38.32
2022-08-17T12:39:14.404Z,38.32
2022-08-17T12:40:04.455Z,38.32
2022-08-17T12:41:03.393Z,38.36
2022-08-17T12:42:03.353Z,38.32
2022-08-17T12:43:03.341Z,38.29
2022-08-17T12:44:03.337Z,38.30
2022-08-17T12:45:03.322Z,38.26
2022-08-17T12:46:13.132Z,38.25
2022-08-17T12:47:04.305Z,38.25
2022-08-17T12:48:03.298Z,38.29
2022-08-17T12:49:03.286Z,38.30
2022-08-17T12:50:03.295Z,38.30
2022-08-17T12:51:03.287Z,38.20
2022-08-17T12:52:03.257Z,38.17